Time;durP1;ratioP1;P1;durP2;ratioP2;P2;SDS_P1;SDS_P2;PMS_P1;PMS_P2;Temp;Humidity;BMP_temperature;BMP_pressure;BME280_temperature;BME280_humidity;BME280_pressure;Samples;Min_cycle;Max_cycle;Signal;HPM_P1;HPM_P2
2024/01/31 00:01:35;;;;;;;3.75;2.50;;;;;;;;;;5052829;28;20464;-75
2024/01/31 00:04:00;;;;;;;3.42;2.45;;;;;;;;;;5050437;28;20087;-75
2024/01/31 00:06:26;;;;;;;3.42;2.40;;;;;;;;;;5059753;28;20037;-75
2024/01/31 00:08:51;;;;;;;6.20;2.55;;;;;;;;;;5059650;28;20124;-75
2024/01/31 00:11:17;;;;;;;7.18;2.75;;;;;;;;;;5070894;28;20037;-75
2024/01/31 00:13:42;;;;;;;4.93;2.50;;;;;;;;;;5055837;28;20051;-74
2024/01/31 00:16:07;;;;;;;3.78;2.53;;;;;;;;;;5055536;28;20082;-75
2024/01/31 00:18:33;;;;;;;2.55;2.22;;;;;;;;;;5058080;28;20124;-75
2024/01/31 00:20:59;;;;;;;3.80;2.40;;;;;;;;;;5054861;28;20417;-75
2024/01/31 00:23:24;;;;;;;6.43;2.28;;;;;;;;;;5060304;28;20052;-76
2024/01/31 00:25:50;;;;;;;2.90;2.28;;;;;;;;;;5061311;28;20512;-75
2024/01/31 00:28:16;;;;;;;4.57;2.63;;;;;;;;;;5052901;28;20033;-75
2024/01/31 00:30:41;;;;;;;2.50;2.25;;;;;;;;;;5057483;28;20041;-75
2024/01/31 00:33:06;;;;;;;3.20;2.40;;;;;;;;;;5050192;28;20033;-75
2024/01/31 00:35:31;;;;;;;4.40;2.33;;;;;;;;;;5060483;28;20419;-75
2024/01/31 00:37:57;;;;;;;4.25;2.65;;;;;;;;;;5049265;28;20033;-75
2024/01/31 00:40:22;;;;;;;3.80;2.65;;;;;;;;;;5056749;28;20115;-75
2024/01/31 00:42:47;;;;;;;4.60;2.47;;;;;;;;;;5053995;28;20059;-75
2024/01/31 00:45:14;;;;;;;3.72;2.70;;;;;;;;;;5057011;28;20060;-75
2024/01/31 00:47:43;;;;;;;6.53;2.47;;;;;;;;;;5050755;28;20037;-75
2024/01/31 00:50:14;;;;;;;3.90;2.17;;;;;;;;;;5057056;28;20033;-74
2024/01/31 00:52:41;;;;;;;4.05;2.47;;;;;;;;;;5053152;28;20044;-77
2024/01/31 00:55:07;;;;;;;2.45;2.03;;;;;;;;;;5051455;28;20469;-75
2024/01/31 00:57:33;;;;;;;3.80;2.50;;;;;;;;;;5049763;28;20119;-74
2024/01/31 00:59:58;;;;;;;3.50;2.42;;;;;;;;;;5054822;28;20040;-75
2024/01/31 01:02:23;;;;;;;3.75;2.50;;;;;;;;;;5051270;28;20091;-75
2024/01/31 01:04:48;;;;;;;5.18;3.17;;;;;;;;;;5058275;28;20037;-75
2024/01/31 01:07:14;;;;;;;3.15;2.55;;;;;;;;;;5053886;28;20037;-75
2024/01/31 01:09:39;;;;;;;4.45;2.70;;;;;;;;;;5065738;28;20040;-75
2024/01/31 01:12:05;;;;;;;2.55;2.33;;;;;;;;;;5053504;28;20033;-75
2024/01/31 01:14:30;;;;;;;6.45;2.58;;;;;;;;;;5051275;28;20021;-74
2024/01/31 01:16:55;;;;;;;4.47;2.45;;;;;;;;;;5050719;28;20044;-74
2024/01/31 01:19:21;;;;;;;3.70;2.72;;;;;;;;;;5041309;28;20083;-75
2024/01/31 01:21:47;;;;;;;3.88;2.78;;;;;;;;;;5049486;28;20044;-75
2024/01/31 01:24:12;;;;;;;2.40;2.20;;;;;;;;;;5050952;28;20028;-75
2024/01/31 01:26:39;;;;;;;2.70;2.38;;;;;;;;;;5056982;28;20513;-74
2024/01/31 01:29:04;;;;;;;2.58;2.38;;;;;;;;;;5049380;28;20037;-75
2024/01/31 01:31:30;;;;;;;3.83;2.33;;;;;;;;;;5059304;28;20509;-75
2024/01/31 01:33:56;;;;;;;3.38;2.40;;;;;;;;;;5050412;28;20076;-75
2024/01/31 01:36:21;;;;;;;6.55;2.08;;;;;;;;;;5048978;28;20040;-75
2024/01/31 01:38:46;;;;;;;2.38;2.10;;;;;;;;;;5050905;28;20552;-75
2024/01/31 01:41:11;;;;;;;2.88;2.28;;;;;;;;;;5050268;28;20115;-75
2024/01/31 01:43:37;;;;;;;3.70;2.17;;;;;;;;;;5055472;28;20134;-75
2024/01/31 01:46:15;;;;;;;2.70;2.20;;;;;;;;;;5056835;28;20037;-74
2024/01/31 01:48:41;;;;;;;2.85;2.03;;;;;;;;;;5053610;28;20037;-75
2024/01/31 01:51:07;;;;;;;2.47;1.95;;;;;;;;;;5055353;28;20637;-75
2024/01/31 01:53:36;;;;;;;1.55;1.45;;;;;;;;;;5053734;28;20037;-74
2024/01/31 01:56:07;;;;;;;3.47;1.83;;;;;;;;;;5048413;28;20029;-76
2024/01/31 01:58:34;;;;;;;2.85;2.10;;;;;;;;;;5050881;28;20064;-75
2024/01/31 02:01:03;;;;;;;2.13;1.52;;;;;;;;;;5055932;28;20048;-76
2024/01/31 02:03:31;;;;;;;3.00;2.15;;;;;;;;;;5053428;28;20036;-74
2024/01/31 02:05:58;;;;;;;2.40;2.08;;;;;;;;;;5050412;28;20080;-74
2024/01/31 02:08:25;;;;;;;3.63;2.00;;;;;;;;;;5054085;28;20036;-74
2024/01/31 02:10:50;;;;;;;2.90;1.90;;;;;;;;;;5054417;28;20041;-76
2024/01/31 02:13:16;;;;;;;1.80;1.67;;;;;;;;;;5052920;28;20032;-75
2024/01/31 02:15:57;;;;;;;2.72;2.00;;;;;;;;;;5048148;28;20043;-74
2024/01/31 02:18:25;;;;;;;3.70;2.13;;;;;;;;;;5053933;28;20592;-74
2024/01/31 02:20:50;;;;;;;3.92;1.90;;;;;;;;;;5061436;28;20065;-76
2024/01/31 02:23:16;;;;;;;1.77;1.65;;;;;;;;;;5053355;28;20064;-76
2024/01/31 02:25:41;;;;;;;2.53;1.75;;;;;;;;;;5053387;28;20036;-76
2024/01/31 02:28:07;;;;;;;2.20;2.00;;;;;;;;;;5054482;28;20115;-76
2024/01/31 02:30:32;;;;;;;1.83;1.60;;;;;;;;;;5052527;28;20500;-76
2024/01/31 02:32:57;;;;;;;1.55;1.45;;;;;;;;;;5062019;28;20029;-76
2024/01/31 02:35:27;;;;;;;3.63;1.77;;;;;;;;;;5057554;28;20041;-76
2024/01/31 02:37:52;;;;;;;3.58;2.30;;;;;;;;;;5049237;28;20154;-76
2024/01/31 02:40:18;;;;;;;3.42;1.92;;;;;;;;;;5057618;28;20033;-76
2024/01/31 02:42:43;;;;;;;2.80;1.95;;;;;;;;;;5059150;28;20162;-76
2024/01/31 02:45:09;;;;;;;3.85;2.38;;;;;;;;;;5060174;28;20036;-76
2024/01/31 02:47:35;;;;;;;5.45;2.20;;;;;;;;;;5049502;28;20044;-76
2024/01/31 02:50:01;;;;;;;4.82;2.17;;;;;;;;;;5049392;28;20029;-76
2024/01/31 02:52:26;;;;;;;3.58;2.28;;;;;;;;;;5057693;28;20055;-76
2024/01/31 02:54:52;;;;;;;3.03;2.28;;;;;;;;;;5064687;28;20115;-75
2024/01/31 02:57:19;;;;;;;2.40;1.95;;;;;;;;;;5054440;28;20059;-76
2024/01/31 02:59:44;;;;;;;2.35;2.15;;;;;;;;;;5056449;28;20024;-76
2024/01/31 03:02:09;;;;;;;3.95;2.22;;;;;;;;;;5055035;28;20040;-75
2024/01/31 03:04:34;;;;;;;2.58;2.00;;;;;;;;;;5052918;28;20394;-75
2024/01/31 03:07:00;;;;;;;3.53;2.20;;;;;;;;;;5061406;28;20067;-75
2024/01/31 03:09:26;;;;;;;1.55;1.45;;;;;;;;;;5044826;28;20432;-75
2024/01/31 03:11:52;;;;;;;3.13;1.98;;;;;;;;;;5054646;28;20028;-75
2024/01/31 03:14:17;;;;;;;1.73;1.63;;;;;;;;;;5067529;28;20087;-76
2024/01/31 03:16:43;;;;;;;2.90;2.10;;;;;;;;;;5054758;28;20120;-75
2024/01/31 03:19:08;;;;;;;3.00;2.10;;;;;;;;;;5057697;28;20055;-75
2024/01/31 03:21:34;;;;;;;2.92;2.00;;;;;;;;;;5052823;28;20799;-76
2024/01/31 03:23:59;;;;;;;3.08;1.70;;;;;;;;;;5066152;28;20037;-75
2024/01/31 03:26:24;;;;;;;3.83;1.88;;;;;;;;;;5056239;28;20074;-76
2024/01/31 03:28:50;;;;;;;3.83;1.90;;;;;;;;;;5057478;28;20124;-76
2024/01/31 03:31:15;;;;;;;2.72;1.83;;;;;;;;;;5060499;28;20047;-75
2024/01/31 03:33:40;;;;;;;2.40;1.77;;;;;;;;;;5052442;28;20039;-75
2024/01/31 03:36:09;;;;;;;3.47;1.98;;;;;;;;;;5055146;28;20702;-75
2024/01/31 03:38:34;;;;;;;2.95;1.80;;;;;;;;;;5057712;28;20520;-76
2024/01/31 03:41:00;;;;;;;1.92;1.70;;;;;;;;;;5067918;28;20029;-76
2024/01/31 03:43:25;;;;;;;3.25;2.15;;;;;;;;;;5055653;28;20086;-75
2024/01/31 03:45:50;;;;;;;3.25;2.00;;;;;;;;;;5063779;28;20043;-75
2024/01/31 03:48:17;;;;;;;2.92;2.25;;;;;;;;;;5052376;28;20725;-76
2024/01/31 03:50:42;;;;;;;4.75;2.42;;;;;;;;;;5053391;28;20120;-75
2024/01/31 03:53:07;;;;;;;2.00;1.80;;;;;;;;;;5059201;28;20033;-76
2024/01/31 03:55:33;;;;;;;4.22;1.90;;;;;;;;;;5056442;28;20047;-76
2024/01/31 03:57:58;;;;;;;3.45;2.28;;;;;;;;;;5057690;28;20036;-76
2024/01/31 04:00:23;;;;;;;10.48;2.50;;;;;;;;;;5052096;28;20033;-75
2024/01/31 04:02:49;;;;;;;2.38;2.13;;;;;;;;;;5054952;28;20094;-75
2024/01/31 04:05:15;;;;;;;3.20;1.90;;;;;;;;;;5052033;28;20493;-75
2024/01/31 04:07:42;;;;;;;3.70;2.03;;;;;;;;;;5065424;28;20036;-75
2024/01/31 04:10:08;;;;;;;2.90;2.30;;;;;;;;;;5048088;28;20052;-75
2024/01/31 04:12:33;;;;;;;3.65;2.22;;;;;;;;;;5057495;28;20120;-75
2024/01/31 04:14:58;;;;;;;3.72;2.35;;;;;;;;;;5054957;28;20059;-75
2024/01/31 04:17:24;;;;;;;4.53;2.25;;;;;;;;;;5052033;28;20033;-75
2024/01/31 04:19:49;;;;;;;3.53;2.78;;;;;;;;;;5054855;28;20405;-75
2024/01/31 04:22:16;;;;;;;6.70;2.38;;;;;;;;;;5060161;28;20033;-75
2024/01/31 04:24:42;;;;;;;3.45;2.20;;;;;;;;;;5055374;28;20107;-75
2024/01/31 04:27:08;;;;;;;2.70;2.10;;;;;;;;;;5063319;28;20028;-75
2024/01/31 04:29:33;;;;;;;5.22;2.72;;;;;;;;;;5044022;28;20124;-75
2024/01/31 04:31:59;;;;;;;3.03;2.20;;;;;;;;;;5053794;28;20489;-75
2024/01/31 04:34:25;;;;;;;2.85;2.25;;;;;;;;;;5051724;28;20569;-75
2024/01/31 04:36:50;;;;;;;3.85;2.78;;;;;;;;;;5062747;28;20119;-76
2024/01/31 04:39:16;;;;;;;5.18;2.17;;;;;;;;;;5053811;28;20155;-75
2024/01/31 04:41:43;;;;;;;7.13;2.20;;;;;;;;;;5054586;28;20120;-76
2024/01/31 04:44:08;;;;;;;3.42;2.60;;;;;;;;;;5043395;28;20029;-75
2024/01/31 04:46:34;;;;;;;6.85;2.70;;;;;;;;;;5055642;28;20043;-75
2024/01/31 04:49:00;;;;;;;7.00;2.40;;;;;;;;;;5063963;28;20037;-75
2024/01/31 04:51:26;;;;;;;4.68;2.35;;;;;;;;;;5062906;28;20044;-75
2024/01/31 04:53:51;;;;;;;4.60;2.33;;;;;;;;;;5052894;28;20099;-75
2024/01/31 04:56:18;;;;;;;2.90;2.13;;;;;;;;;;5058484;28;20058;-75
2024/01/31 04:58:43;;;;;;;7.22;2.10;;;;;;;;;;5059493;28;20056;-75
2024/01/31 05:01:08;;;;;;;2.22;2.03;;;;;;;;;;5056506;28;20071;-75
2024/01/31 05:03:34;;;;;;;3.47;2.00;;;;;;;;;;5064275;28;20585;-75
2024/01/31 05:05:59;;;;;;;3.60;1.98;;;;;;;;;;5065702;28;20035;-75
2024/01/31 05:08:28;;;;;;;3.38;2.17;;;;;;;;;;5053274;28;20033;-76
2024/01/31 05:10:54;;;;;;;2.72;1.98;;;;;;;;;;5052306;28;20068;-75
2024/01/31 05:13:19;;;;;;;3.63;2.10;;;;;;;;;;5056648;28;20060;-75
2024/01/31 05:15:44;;;;;;;3.90;2.28;;;;;;;;;;5068499;28;20119;-75
2024/01/31 05:18:11;;;;;;;3.50;2.13;;;;;;;;;;5065630;28;20075;-75
2024/01/31 05:20:37;;;;;;;2.92;1.90;;;;;;;;;;5069413;28;20098;-74
2024/01/31 05:23:02;;;;;;;2.95;1.98;;;;;;;;;;5061430;28;20044;-75
2024/01/31 05:25:27;;;;;;;3.40;2.05;;;;;;;;;;5061348;28;20029;-74
2024/01/31 05:27:53;;;;;;;2.58;1.92;;;;;;;;;;5058733;28;20052;-75
2024/01/31 05:30:18;;;;;;;1.98;1.77;;;;;;;;;;5064639;28;20037;-74
2024/01/31 05:32:45;;;;;;;2.97;2.33;;;;;;;;;;5062003;28;20037;-74
2024/01/31 05:35:10;;;;;;;3.78;2.20;;;;;;;;;;5065760;28;20513;-74
2024/01/31 05:37:36;;;;;;;7.30;2.30;;;;;;;;;;5068034;28;20086;-75
2024/01/31 05:40:01;;;;;;;2.28;2.00;;;;;;;;;;5067908;28;20032;-75
2024/01/31 05:42:27;;;;;;;5.45;2.42;;;;;;;;;;5053156;28;20032;-75
2024/01/31 05:44:53;;;;;;;3.35;2.13;;;;;;;;;;5068968;28;20102;-75
2024/01/31 05:47:19;;;;;;;4.65;2.40;;;;;;;;;;5051668;28;20120;-75
2024/01/31 05:49:44;;;;;;;3.15;1.80;;;;;;;;;;5051661;28;20048;-75
2024/01/31 05:52:10;;;;;;;2.85;1.90;;;;;;;;;;5063560;28;20509;-75
2024/01/31 05:54:35;;;;;;;4.20;2.50;;;;;;;;;;5046567;28;20470;-75
2024/01/31 05:57:00;;;;;;;2.55;1.92;;;;;;;;;;5068354;28;20492;-75
2024/01/31 05:59:26;;;;;;;5.22;1.90;;;;;;;;;;5064638;28;20033;-75
2024/01/31 06:01:51;;;;;;;3.00;2.15;;;;;;;;;;5057126;28;20123;-76
2024/01/31 06:04:16;;;;;;;2.95;2.17;;;;;;;;;;5059925;28;20449;-75
2024/01/31 06:06:41;;;;;;;2.85;2.00;;;;;;;;;;5060348;28;20032;-75
2024/01/31 06:09:07;;;;;;;4.13;2.20;;;;;;;;;;5059876;28;20120;-75
2024/01/31 06:11:33;;;;;;;3.08;1.95;;;;;;;;;;5058874;28;20110;-75
2024/01/31 06:13:58;;;;;;;2.40;2.00;;;;;;;;;;5063785;28;20042;-75
2024/01/31 06:16:23;;;;;;;2.15;1.85;;;;;;;;;;5063806;28;20803;-75
2024/01/31 06:18:49;;;;;;;4.18;1.92;;;;;;;;;;5064263;28;20097;-75
2024/01/31 06:21:14;;;;;;;5.20;2.38;;;;;;;;;;5064136;28;20081;-75
2024/01/31 06:23:39;;;;;;;4.10;1.92;;;;;;;;;;5062127;28;20401;-73
2024/01/31 06:26:05;;;;;;;4.97;2.03;;;;;;;;;;5066116;28;20501;-74
2024/01/31 06:28:31;;;;;;;4.15;2.13;;;;;;;;;;5062566;28;20064;-74
2024/01/31 06:31:01;;;;;;;1.80;1.60;;;;;;;;;;5060887;28;20041;-74
2024/01/31 06:33:31;;;;;;;3.30;1.77;;;;;;;;;;5058903;28;20367;-74
2024/01/31 06:35:57;;;;;;;4.07;2.00;;;;;;;;;;5062472;28;20033;-74
2024/01/31 06:38:23;;;;;;;5.75;2.33;;;;;;;;;;5060197;28;20036;-73
2024/01/31 06:40:49;;;;;;;5.85;2.22;;;;;;;;;;5047929;28;20086;-73
2024/01/31 06:43:14;;;;;;;3.85;2.40;;;;;;;;;;5060732;28;20113;-73
2024/01/31 06:45:40;;;;;;;2.67;2.38;;;;;;;;;;5065894;28;20178;-73
2024/01/31 06:48:08;;;;;;;4.65;2.30;;;;;;;;;;5053147;28;20037;-73
2024/01/31 06:50:33;;;;;;;3.10;2.25;;;;;;;;;;5054616;28;20128;-73
2024/01/31 06:52:58;;;;;;;3.58;1.83;;;;;;;;;;5062265;28;20123;-74
2024/01/31 06:55:23;;;;;;;3.72;2.20;;;;;;;;;;5059418;28;20029;-73
2024/01/31 06:57:49;;;;;;;5.05;2.35;;;;;;;;;;5066786;28;20043;-73
2024/01/31 07:00:15;;;;;;;6.03;2.47;;;;;;;;;;5051741;28;20049;-73
2024/01/31 07:02:41;;;;;;;3.05;2.30;;;;;;;;;;5064206;28;20082;-73
2024/01/31 07:05:06;;;;;;;5.57;2.40;;;;;;;;;;5066809;28;20045;-73
2024/01/31 07:07:33;;;;;;;3.75;2.45;;;;;;;;;;5060200;28;20120;-73
2024/01/31 07:09:58;;;;;;;4.63;2.28;;;;;;;;;;5059868;28;20451;-73
2024/01/31 07:12:23;;;;;;;1.65;1.55;;;;;;;;;;5062288;28;20130;-73
2024/01/31 07:14:48;;;;;;;9.68;3.50;;;;;;;;;;5055254;28;20061;-73
2024/01/31 07:17:14;;;;;;;6.35;2.95;;;;;;;;;;5066388;28;20044;-72
2024/01/31 07:19:42;;;;;;;13.13;3.72;;;;;;;;;;5067452;28;20045;-72
2024/01/31 07:22:08;;;;;;;8.27;2.80;;;;;;;;;;5065011;28;20106;-72
2024/01/31 07:24:34;;;;;;;4.93;4.05;;;;;;;;;;5067191;28;20040;-72
2024/01/31 07:27:00;;;;;;;6.47;2.85;;;;;;;;;;5068293;28;20412;-72
2024/01/31 07:29:25;;;;;;;2.83;2.08;;;;;;;;;;5064857;28;20036;-72
2024/01/31 07:31:50;;;;;;;2.40;1.80;;;;;;;;;;5046216;28;20500;-72
2024/01/31 07:34:16;;;;;;;3.22;2.33;;;;;;;;;;5063177;28;20044;-72
2024/01/31 07:36:41;;;;;;;2.40;2.10;;;;;;;;;;5051853;28;20452;-72
2024/01/31 07:39:07;;;;;;;2.58;2.00;;;;;;;;;;5064514;28;20071;-72
2024/01/31 07:41:33;;;;;;;4.13;2.60;;;;;;;;;;5067846;28;20113;-72
2024/01/31 07:43:58;;;;;;;3.30;2.78;;;;;;;;;;5057748;28;20046;-72
2024/01/31 07:46:23;;;;;;;4.72;2.13;;;;;;;;;;5059229;28;20040;-72
2024/01/31 07:48:49;;;;;;;4.32;2.42;;;;;;;;;;5068800;28;20037;-72
2024/01/31 07:51:15;;;;;;;6.57;3.13;;;;;;;;;;5071308;28;20390;-72
2024/01/31 07:53:40;;;;;;;4.22;2.80;;;;;;;;;;5070348;28;20033;-72
2024/01/31 07:56:06;;;;;;;4.50;2.28;;;;;;;;;;5071304;28;20043;-72
2024/01/31 07:58:32;;;;;;;3.45;2.40;;;;;;;;;;5059231;28;20190;-72
2024/01/31 08:00:57;;;;;;;5.47;1.85;;;;;;;;;;5059055;28;20462;-72
2024/01/31 08:03:23;;;;;;;3.75;2.08;;;;;;;;;;5062994;28;20047;-72
2024/01/31 08:05:48;;;;;;;3.83;2.30;;;;;;;;;;5065584;28;20036;-72
2024/01/31 08:08:13;;;;;;;2.90;2.38;;;;;;;;;;5059830;28;20033;-72
2024/01/31 08:10:38;;;;;;;4.18;2.22;;;;;;;;;;5052905;28;20040;-72
2024/01/31 08:13:04;;;;;;;3.95;2.30;;;;;;;;;;5051867;28;20041;-72
2024/01/31 08:15:31;;;;;;;2.85;2.03;;;;;;;;;;5063205;28;20039;-72
2024/01/31 08:17:57;;;;;;;6.32;2.95;;;;;;;;;;5063675;28;20561;-72
2024/01/31 08:20:22;;;;;;;4.15;2.75;;;;;;;;;;5055940;28;20037;-72
2024/01/31 08:22:47;;;;;;;3.40;2.22;;;;;;;;;;5057768;28;20036;-72
2024/01/31 08:25:13;;;;;;;3.38;2.00;;;;;;;;;;5053377;28;20493;-72
2024/01/31 08:27:38;;;;;;;5.78;2.13;;;;;;;;;;5052008;28;20489;-72
2024/01/31 08:30:05;;;;;;;5.07;2.20;;;;;;;;;;5052127;28;20448;-72
2024/01/31 08:32:34;;;;;;;5.82;4.50;;;;;;;;;;5042651;28;20041;-72
2024/01/31 08:34:59;;;;;;;8.40;3.95;;;;;;;;;;5059201;28;20102;-72
2024/01/31 08:37:25;;;;;;;8.48;3.83;;;;;;;;;;5052621;28;20056;-72
2024/01/31 08:39:50;;;;;;;5.00;3.20;;;;;;;;;;5057924;28;20033;-72
2024/01/31 08:42:16;;;;;;;5.88;3.17;;;;;;;;;;5052109;28;20037;-72
2024/01/31 08:44:41;;;;;;;2.85;2.55;;;;;;;;;;5052452;28;20501;-72
2024/01/31 08:47:06;;;;;;;7.55;2.85;;;;;;;;;;5051684;28;20037;-73
2024/01/31 08:49:32;;;;;;;3.92;2.60;;;;;;;;;;5058553;28;20489;-72
2024/01/31 08:51:57;;;;;;;5.53;2.65;;;;;;;;;;5063500;28;20029;-73
2024/01/31 08:54:22;;;;;;;3.55;2.08;;;;;;;;;;5054272;28;20062;-73
2024/01/31 08:56:47;;;;;;;2.22;2.03;;;;;;;;;;5057840;28;20134;-73
2024/01/31 08:59:13;;;;;;;3.53;2.60;;;;;;;;;;5058826;28;20052;-73
2024/01/31 09:01:45;;;;;;;3.70;1.98;;;;;;;;;;5051927;28;20068;-73
2024/01/31 09:04:11;;;;;;;4.68;1.90;;;;;;;;;;5058871;28;20106;-72
2024/01/31 09:06:36;;;;;;;4.22;2.08;;;;;;;;;;5062978;28;20485;-73
2024/01/31 09:09:03;;;;;;;3.92;2.08;;;;;;;;;;5070389;28;20519;-73
2024/01/31 09:11:29;;;;;;;2.80;2.08;;;;;;;;;;5059948;28;20125;-73
2024/01/31 09:13:54;;;;;;;2.92;2.22;;;;;;;;;;5052141;28;20714;-73
2024/01/31 09:16:19;;;;;;;4.93;2.10;;;;;;;;;;5059945;28;20036;-73
2024/01/31 09:18:45;;;;;;;2.38;1.98;;;;;;;;;;5053137;28;20409;-72
2024/01/31 09:21:21;;;;;;;3.92;2.17;;;;;;;;;;5062445;28;20102;-73
2024/01/31 09:23:47;;;;;;;3.20;2.10;;;;;;;;;;5052741;28;20489;-73
2024/01/31 09:26:12;;;;;;;10.88;5.32;;;;;;;;;;5060501;28;20128;-73
2024/01/31 09:28:38;;;;;;;10.30;6.85;;;;;;;;;;5059241;28;20041;-73
2024/01/31 09:31:03;;;;;;;10.80;5.30;;;;;;;;;;5059305;28;20619;-73
2024/01/31 09:33:28;;;;;;;9.55;4.80;;;;;;;;;;5051698;28;20467;-73
2024/01/31 09:35:54;;;;;;;9.23;3.83;;;;;;;;;;5059648;28;20112;-73
2024/01/31 09:38:19;;;;;;;5.93;3.17;;;;;;;;;;5061058;28;20814;-73
2024/01/31 09:40:45;;;;;;;6.50;3.10;;;;;;;;;;5056707;28;20444;-73
2024/01/31 09:43:10;;;;;;;3.03;2.20;;;;;;;;;;5053203;28;20497;-73
2024/01/31 09:45:37;;;;;;;5.13;2.20;;;;;;;;;;5059080;28;20041;-73
2024/01/31 09:48:03;;;;;;;9.35;2.58;;;;;;;;;;5058949;28;20044;-73
2024/01/31 09:50:28;;;;;;;2.10;1.90;;;;;;;;;;5064108;28;20028;-73
2024/01/31 09:52:56;;;;;;;4.85;2.15;;;;;;;;;;5058925;28;20037;-73
2024/01/31 09:55:22;;;;;;;2.50;1.85;;;;;;;;;;5052028;28;20401;-73
2024/01/31 09:57:47;;;;;;;2.17;1.90;;;;;;;;;;5052390;28;20029;-73
2024/01/31 10:00:12;;;;;;;3.78;1.80;;;;;;;;;;5054030;28;20028;-73
2024/01/31 10:02:40;;;;;;;2.00;1.77;;;;;;;;;;5059520;28;20025;-73
2024/01/31 10:05:06;;;;;;;2.97;2.30;;;;;;;;;;5066265;28;20028;-73
2024/01/31 10:07:32;;;;;;;4.70;2.30;;;;;;;;;;5064495;28;20119;-73
2024/01/31 10:09:57;;;;;;;4.00;2.30;;;;;;;;;;5054963;28;20128;-72
2024/01/31 10:12:23;;;;;;;9.52;2.10;;;;;;;;;;5060550;28;20041;-73
2024/01/31 10:14:51;;;;;;;3.38;2.30;;;;;;;;;;5053188;28;20025;-73
2024/01/31 10:17:16;;;;;;;5.05;2.60;;;;;;;;;;5063019;28;20035;-72
2024/01/31 10:19:41;;;;;;;5.20;2.40;;;;;;;;;;5062275;28;20029;-73
2024/01/31 10:22:07;;;;;;;3.67;2.45;;;;;;;;;;5053352;28;20025;-73
2024/01/31 10:24:32;;;;;;;2.28;2.08;;;;;;;;;;5055474;28;20098;-73
2024/01/31 10:26:58;;;;;;;4.07;2.35;;;;;;;;;;5057154;28;20029;-73
2024/01/31 10:29:23;;;;;;;2.90;2.40;;;;;;;;;;5055278;28;20044;-73
2024/01/31 10:31:52;;;;;;;6.40;2.80;;;;;;;;;;5057731;28;20079;-73
2024/01/31 10:34:18;;;;;;;4.45;2.63;;;;;;;;;;5054017;28;20501;-73
2024/01/31 10:36:44;;;;;;;6.45;2.72;;;;;;;;;;5053327;28;20033;-73
2024/01/31 10:39:09;;;;;;;3.70;2.53;;;;;;;;;;5062336;28;20033;-72
2024/01/31 10:41:35;;;;;;;3.38;2.53;;;;;;;;;;5062716;28;20085;-73
2024/01/31 10:44:03;;;;;;;4.13;2.60;;;;;;;;;;5059273;28;20040;-73
2024/01/31 10:46:28;;;;;;;4.05;2.60;;;;;;;;;;5050702;28;20032;-73
2024/01/31 10:48:54;;;;;;;3.90;2.53;;;;;;;;;;5054705;28;20029;-73
2024/01/31 10:51:20;;;;;;;3.08;2.72;;;;;;;;;;5055695;28;20023;-73
2024/01/31 10:53:46;;;;;;;3.83;2.55;;;;;;;;;;5053456;28;20041;-73
2024/01/31 10:56:13;;;;;;;6.13;3.03;;;;;;;;;;5059353;28;20029;-72
2024/01/31 10:58:38;;;;;;;3.90;2.83;;;;;;;;;;5055917;28;20338;-73
2024/01/31 11:01:04;;;;;;;7.15;2.80;;;;;;;;;;5056444;28;20029;-73
2024/01/31 11:03:29;;;;;;;4.22;2.95;;;;;;;;;;5056051;28;20496;-73
2024/01/31 11:05:55;;;;;;;4.97;2.85;;;;;;;;;;5063951;28;20021;-74
2024/01/31 11:08:21;;;;;;;3.35;2.65;;;;;;;;;;5051981;28;20029;-73
2024/01/31 11:10:48;;;;;;;4.97;2.90;;;;;;;;;;5056926;28;20372;-73
2024/01/31 11:13:13;;;;;;;6.55;2.97;;;;;;;;;;5054932;28;20095;-73
2024/01/31 11:15:39;;;;;;;3.67;2.95;;;;;;;;;;5055711;28;20060;-73
2024/01/31 11:18:12;;;;;;;3.08;2.75;;;;;;;;;;5055735;28;20032;-73
2024/01/31 11:20:39;;;;;;;6.53;2.58;;;;;;;;;;5060987;28;20067;-73
2024/01/31 11:23:05;;;;;;;6.35;2.33;;;;;;;;;;5050330;28;20040;-73
2024/01/31 11:25:35;;;;;;;4.22;2.72;;;;;;;;;;5055325;28;20047;-74
2024/01/31 11:28:00;;;;;;;6.22;2.50;;;;;;;;;;5055896;28;20122;-74
2024/01/31 11:30:26;;;;;;;9.55;2.75;;;;;;;;;;5056855;28;20075;-74
2024/01/31 11:32:52;;;;;;;4.72;2.95;;;;;;;;;;5055919;28;20134;-74
2024/01/31 11:35:18;;;;;;;4.15;2.60;;;;;;;;;;5065115;28;20029;-74
2024/01/31 11:37:43;;;;;;;5.80;2.72;;;;;;;;;;5057530;28;20115;-74
2024/01/31 11:40:09;;;;;;;3.63;2.45;;;;;;;;;;5055889;28;20102;-74
2024/01/31 11:42:35;;;;;;;4.60;2.92;;;;;;;;;;5058924;28;20095;-74
2024/01/31 11:45:01;;;;;;;7.15;3.08;;;;;;;;;;5053734;28;20112;-74
2024/01/31 11:47:27;;;;;;;5.80;3.13;;;;;;;;;;5057865;28;20085;-74
2024/01/31 11:50:00;;;;;;;6.32;2.88;;;;;;;;;;5064546;28;20033;-75
2024/01/31 11:52:25;;;;;;;3.65;2.60;;;;;;;;;;5062715;28;20032;-74
2024/01/31 11:54:51;;;;;;;6.55;2.65;;;;;;;;;;5059623;28;20040;-74
2024/01/31 11:57:16;;;;;;;4.72;3.15;;;;;;;;;;5065255;28;20032;-74
2024/01/31 11:59:42;;;;;;;5.07;2.83;;;;;;;;;;5058700;28;20451;-75
2024/01/31 12:02:09;;;;;;;11.63;3.20;;;;;;;;;;5053897;28;20075;-74
2024/01/31 12:04:34;;;;;;;6.15;3.15;;;;;;;;;;5061392;28;20037;-75
2024/01/31 12:07:04;;;;;;;5.32;2.90;;;;;;;;;;5057226;28;20110;-75
2024/01/31 12:09:30;;;;;;;5.75;2.97;;;;;;;;;;5054640;28;20043;-75
2024/01/31 12:11:55;;;;;;;3.92;2.92;;;;;;;;;;5062245;28;20342;-75
2024/01/31 12:14:21;;;;;;;4.15;2.83;;;;;;;;;;5059959;28;20033;-75
2024/01/31 12:16:46;;;;;;;18.33;3.78;;;;;;;;;;5063060;28;20124;-75
2024/01/31 12:19:18;;;;;;;4.75;3.13;;;;;;;;;;5060313;28;20067;-75
2024/01/31 12:21:43;;;;;;;2.92;2.38;;;;;;;;;;5056706;28;20040;-74
2024/01/31 12:24:09;;;;;;;3.63;2.30;;;;;;;;;;5061024;28;20405;-74
2024/01/31 12:26:34;;;;;;;3.40;2.20;;;;;;;;;;5053644;28;20099;-75
2024/01/31 12:29:00;;;;;;;3.92;2.28;;;;;;;;;;5051037;28;20121;-75
2024/01/31 12:31:26;;;;;;;3.97;2.25;;;;;;;;;;5070305;28;20040;-74
2024/01/31 12:33:51;;;;;;;2.95;2.30;;;;;;;;;;5054300;28;20484;-75
2024/01/31 12:36:17;;;;;;;6.13;2.55;;;;;;;;;;5058810;28;20120;-74
2024/01/31 12:38:42;;;;;;;2.78;2.50;;;;;;;;;;5060528;28;20029;-74
2024/01/31 12:41:08;;;;;;;2.70;2.40;;;;;;;;;;5063093;28;20033;-74
2024/01/31 12:43:34;;;;;;;4.88;2.67;;;;;;;;;;5056145;28;20051;-75
2024/01/31 12:45:59;;;;;;;4.15;2.50;;;;;;;;;;5053686;28;20033;-75
2024/01/31 12:48:25;;;;;;;2.55;2.20;;;;;;;;;;5056608;28;20032;-75
2024/01/31 12:50:51;;;;;;;3.00;2.50;;;;;;;;;;5057145;28;20179;-75
2024/01/31 12:53:16;;;;;;;4.18;2.58;;;;;;;;;;5059690;28;20043;-75
2024/01/31 12:55:42;;;;;;;5.82;2.20;;;;;;;;;;5057511;28;20059;-75
2024/01/31 12:58:07;;;;;;;3.35;2.35;;;;;;;;;;5062961;28;20106;-74
2024/01/31 13:00:33;;;;;;;3.83;2.53;;;;;;;;;;5060479;28;20044;-75
2024/01/31 13:02:58;;;;;;;3.97;2.33;;;;;;;;;;5066744;28;20086;-75
2024/01/31 13:05:25;;;;;;;3.58;2.72;;;;;;;;;;5069429;28;20033;-75
2024/01/31 13:07:50;;;;;;;4.38;2.45;;;;;;;;;;5060332;28;20029;-74
2024/01/31 13:10:16;;;;;;;3.53;2.55;;;;;;;;;;5054946;28;20041;-74
2024/01/31 13:12:41;;;;;;;3.45;2.67;;;;;;;;;;5064327;28;20044;-74
2024/01/31 13:15:07;;;;;;;5.47;2.58;;;;;;;;;;5060224;28;20036;-75
2024/01/31 13:17:32;;;;;;;6.28;2.80;;;;;;;;;;5059110;28;20484;-74
2024/01/31 13:19:58;;;;;;;5.20;2.83;;;;;;;;;;5062802;28;20025;-75
2024/01/31 13:22:23;;;;;;;7.07;3.25;;;;;;;;;;5061475;28;20052;-74
2024/01/31 13:24:48;;;;;;;3.47;2.92;;;;;;;;;;5063793;28;20471;-75
2024/01/31 13:27:13;;;;;;;5.53;3.15;;;;;;;;;;5066224;28;20035;-75
2024/01/31 13:29:39;;;;;;;5.05;2.97;;;;;;;;;;5065564;28;20037;-75
2024/01/31 13:32:05;;;;;;;5.40;3.10;;;;;;;;;;5064431;28;20052;-75
2024/01/31 13:34:30;;;;;;;3.90;2.72;;;;;;;;;;5055251;28;20048;-75
2024/01/31 13:36:55;;;;;;;5.85;3.40;;;;;;;;;;5061310;28;20501;-75
2024/01/31 13:39:20;;;;;;;3.60;3.08;;;;;;;;;;5059798;28;20124;-74
2024/01/31 13:41:46;;;;;;;3.47;2.65;;;;;;;;;;5065797;28;20040;-75
2024/01/31 13:44:11;;;;;;;3.08;2.78;;;;;;;;;;5069204;28;20056;-75
2024/01/31 13:46:40;;;;;;;9.80;3.40;;;;;;;;;;5063475;28;20132;-75
2024/01/31 13:49:06;;;;;;;4.18;3.00;;;;;;;;;;5054673;28;20421;-75
2024/01/31 13:51:32;;;;;;;5.10;2.97;;;;;;;;;;5055897;28;20048;-75
2024/01/31 13:53:58;;;;;;;3.75;2.80;;;;;;;;;;5061708;28;20388;-75
2024/01/31 13:56:23;;;;;;;2.97;2.53;;;;;;;;;;5061707;28;20113;-75
2024/01/31 13:58:50;;;;;;;3.67;3.05;;;;;;;;;;5054201;28;20037;-75
2024/01/31 14:01:15;;;;;;;7.50;3.40;;;;;;;;;;5055517;28;20040;-75
2024/01/31 14:03:41;;;;;;;4.95;3.22;;;;;;;;;;5051682;28;20029;-75
2024/01/31 14:06:06;;;;;;;3.20;2.90;;;;;;;;;;5060269;28;20028;-75
2024/01/31 14:08:32;;;;;;;3.42;2.40;;;;;;;;;;5050667;28;20022;-75
2024/01/31 14:10:57;;;;;;;7.18;3.05;;;;;;;;;;5057535;28;20517;-75
2024/01/31 14:13:22;;;;;;;5.30;3.20;;;;;;;;;;5057505;28;20087;-75
2024/01/31 14:15:47;;;;;;;6.78;4.05;;;;;;;;;;5057855;28;20509;-75
2024/01/31 14:18:13;;;;;;;6.60;3.00;;;;;;;;;;5059411;28;20072;-75
2024/01/31 14:20:38;;;;;;;3.40;2.75;;;;;;;;;;5061746;28;20029;-75
2024/01/31 14:23:05;;;;;;;6.35;3.13;;;;;;;;;;5055726;28;20382;-75
2024/01/31 14:25:30;;;;;;;2.25;2.05;;;;;;;;;;5052397;28;20033;-75
2024/01/31 14:27:56;;;;;;;5.15;2.58;;;;;;;;;;5063382;28;20044;-75
2024/01/31 14:30:21;;;;;;;9.70;2.60;;;;;;;;;;5059291;28;20041;-75
2024/01/31 14:32:46;;;;;;;2.70;2.22;;;;;;;;;;5065844;28;20055;-75
2024/01/31 14:35:12;;;;;;;2.22;2.03;;;;;;;;;;5057564;28;20409;-75